sensor_id;sensor_type;location;lat;lon;timestamp;P1;durP1;ratioP1;P2;durP2;ratioP2
1404;SDS011;697;51.114;6.542;2023-06-14T00:01:46;7.27;;;6.60;;
1404;SDS011;697;51.114;6.542;2023-06-14T00:04:13;6.50;;;6.00;;
1404;SDS011;697;51.114;6.542;2023-06-14T00:06:41;7.27;;;6.57;;
1404;SDS011;697;51.114;6.542;2023-06-14T00:09:10;7.23;;;6.17;;
1404;SDS011;697;51.114;6.542;2023-06-14T00:11:39;8.17;;;6.10;;
1404;SDS011;697;51.114;6.542;2023-06-14T00:14:05;6.60;;;6.10;;
1404;SDS011;697;51.114;6.542;2023-06-14T00:16:32;6.17;;;5.67;;
1404;SDS011;697;51.114;6.542;2023-06-14T00:19:00;7.63;;;6.93;;
1404;SDS011;697;51.114;6.542;2023-06-14T00:21:28;7.30;;;6.70;;
1404;SDS011;697;51.114;6.542;2023-06-14T00:23:55;6.47;;;5.97;;
1404;SDS011;697;51.114;6.542;2023-06-14T00:26:21;7.53;;;6.40;;
1404;SDS011;697;51.114;6.542;2023-06-14T00:28:49;7.17;;;6.30;;
1404;SDS011;697;51.114;6.542;2023-06-14T00:31:16;8.50;;;6.87;;
1404;SDS011;697;51.114;6.542;2023-06-14T00:33:43;6.37;;;5.77;;
1404;SDS011;697;51.114;6.542;2023-06-14T00:36:10;7.13;;;6.53;;
1404;SDS011;697;51.114;6.542;2023-06-14T00:38:37;7.13;;;6.20;;
1404;SDS011;697;51.114;6.542;2023-06-14T00:41:04;7.57;;;6.37;;
1404;SDS011;697;51.114;6.542;2023-06-14T00:43:30;7.40;;;6.40;;
1404;SDS011;697;51.114;6.542;2023-06-14T00:46:01;6.33;;;5.87;;
1404;SDS011;697;51.114;6.542;2023-06-14T00:48:28;9.03;;;6.80;;
1404;SDS011;697;51.114;6.542;2023-06-14T00:50:55;8.07;;;6.27;;
1404;SDS011;697;51.114;6.542;2023-06-14T00:53:22;6.30;;;5.70;;
1404;SDS011;697;51.114;6.542;2023-06-14T00:55:50;7.97;;;7.37;;
1404;SDS011;697;51.114;6.542;2023-06-14T00:58:17;6.90;;;6.40;;
1404;SDS011;697;51.114;6.542;2023-06-14T01:00:44;7.30;;;6.30;;
1404;SDS011;697;51.114;6.542;2023-06-14T01:03:12;6.50;;;5.87;;
1404;SDS011;697;51.114;6.542;2023-06-14T01:05:43;12.10;;;6.50;;
1404;SDS011;697;51.114;6.542;2023-06-14T01:08:24;6.73;;;6.10;;
1404;SDS011;697;51.114;6.542;2023-06-14T01:11:00;8.23;;;7.43;;
1404;SDS011;697;51.114;6.542;2023-06-14T01:13:32;6.90;;;6.30;;
1404;SDS011;697;51.114;6.542;2023-06-14T01:16:01;6.80;;;6.20;;
1404;SDS011;697;51.114;6.542;2023-06-14T01:18:30;7.53;;;6.87;;
1404;SDS011;697;51.114;6.542;2023-06-14T01:20:57;6.13;;;5.63;;
1404;SDS011;697;51.114;6.542;2023-06-14T01:23:25;6.73;;;6.23;;
1404;SDS011;697;51.114;6.542;2023-06-14T01:25:57;7.93;;;6.50;;
1404;SDS011;697;51.114;6.542;2023-06-14T01:28:25;7.73;;;7.03;;
1404;SDS011;697;51.114;6.542;2023-06-14T01:30:57;7.40;;;6.80;;
1404;SDS011;697;51.114;6.542;2023-06-14T01:33:29;7.27;;;6.67;;
1404;SDS011;697;51.114;6.542;2023-06-14T01:35:57;7.90;;;7.20;;
1404;SDS011;697;51.114;6.542;2023-06-14T01:38:27;8.23;;;6.53;;
1404;SDS011;697;51.114;6.542;2023-06-14T01:40:55;8.07;;;7.20;;
1404;SDS011;697;51.114;6.542;2023-06-14T01:43:24;7.40;;;6.80;;
1404;SDS011;697;51.114;6.542;2023-06-14T01:45:52;7.50;;;6.80;;
1404;SDS011;697;51.114;6.542;2023-06-14T01:48:20;7.50;;;6.80;;
1404;SDS011;697;51.114;6.542;2023-06-14T01:50:47;7.63;;;7.00;;
1404;SDS011;697;51.114;6.542;2023-06-14T01:53:14;6.97;;;6.47;;
1404;SDS011;697;51.114;6.542;2023-06-14T01:55:43;8.37;;;7.67;;
1404;SDS011;697;51.114;6.542;2023-06-14T01:58:13;10.30;;;7.07;;
1404;SDS011;697;51.114;6.542;2023-06-14T02:00:41;8.73;;;6.90;;
1404;SDS011;697;51.114;6.542;2023-06-14T02:03:10;8.03;;;7.40;;
1404;SDS011;697;51.114;6.542;2023-06-14T02:05:38;7.43;;;6.83;;
1404;SDS011;697;51.114;6.542;2023-06-14T02:08:05;10.10;;;7.17;;
1404;SDS011;697;51.114;6.542;2023-06-14T02:10:32;6.97;;;6.40;;
1404;SDS011;697;51.114;6.542;2023-06-14T02:13:00;8.47;;;6.37;;
1404;SDS011;697;51.114;6.542;2023-06-14T02:15:27;9.57;;;6.80;;
1404;SDS011;697;51.114;6.542;2023-06-14T02:17:58;7.13;;;6.63;;
1404;SDS011;697;51.114;6.542;2023-06-14T02:20:26;8.13;;;7.43;;
1404;SDS011;697;51.114;6.542;2023-06-14T02:22:53;8.67;;;7.87;;
1404;SDS011;697;51.114;6.542;2023-06-14T02:25:20;7.17;;;6.60;;
1404;SDS011;697;51.114;6.542;2023-06-14T02:27:47;7.30;;;6.70;;
1404;SDS011;697;51.114;6.542;2023-06-14T02:30:15;8.60;;;7.80;;
1404;SDS011;697;51.114;6.542;2023-06-14T02:32:42;7.47;;;6.77;;
1404;SDS011;697;51.114;6.542;2023-06-14T02:35:09;8.53;;;7.73;;
1404;SDS011;697;51.114;6.542;2023-06-14T02:37:36;7.10;;;6.40;;
1404;SDS011;697;51.114;6.542;2023-06-14T02:40:03;8.50;;;7.70;;
1404;SDS011;697;51.114;6.542;2023-06-14T02:42:30;7.97;;;7.17;;
1404;SDS011;697;51.114;6.542;2023-06-14T02:44:57;14.47;;;7.37;;
1404;SDS011;697;51.114;6.542;2023-06-14T02:47:25;10.50;;;7.80;;
1404;SDS011;697;51.114;6.542;2023-06-14T02:49:52;7.20;;;6.50;;
1404;SDS011;697;51.114;6.542;2023-06-14T02:52:19;9.03;;;8.20;;
1404;SDS011;697;51.114;6.542;2023-06-14T02:54:46;9.50;;;7.17;;
1404;SDS011;697;51.114;6.542;2023-06-14T02:57:13;8.73;;;8.00;;
1404;SDS011;697;51.114;6.542;2023-06-14T02:59:40;7.87;;;7.07;;
1404;SDS011;697;51.114;6.542;2023-06-14T03:02:07;8.20;;;7.33;;
1404;SDS011;697;51.114;6.542;2023-06-14T03:04:35;10.50;;;8.10;;
1404;SDS011;697;51.114;6.542;2023-06-14T03:07:03;8.67;;;7.93;;
1404;SDS011;697;51.114;6.542;2023-06-14T03:09:34;7.77;;;7.07;;
1404;SDS011;697;51.114;6.542;2023-06-14T03:12:02;8.30;;;7.60;;
1404;SDS011;697;51.114;6.542;2023-06-14T03:14:29;7.97;;;7.23;;
1404;SDS011;697;51.114;6.542;2023-06-14T03:16:56;7.90;;;7.30;;
1404;SDS011;697;51.114;6.542;2023-06-14T03:19:24;8.33;;;7.53;;
1404;SDS011;697;51.114;6.542;2023-06-14T03:21:52;8.20;;;7.50;;
1404;SDS011;697;51.114;6.542;2023-06-14T03:24:22;8.33;;;7.53;;
1404;SDS011;697;51.114;6.542;2023-06-14T03:26:49;8.73;;;7.87;;
1404;SDS011;697;51.114;6.542;2023-06-14T03:29:15;8.67;;;7.80;;
1404;SDS011;697;51.114;6.542;2023-06-14T03:31:56;7.33;;;6.73;;
1404;SDS011;697;51.114;6.542;2023-06-14T03:34:23;8.17;;;7.47;;
1404;SDS011;697;51.114;6.542;2023-06-14T03:36:50;7.57;;;6.87;;
1404;SDS011;697;51.114;6.542;2023-06-14T03:39:18;8.43;;;7.73;;
1404;SDS011;697;51.114;6.542;2023-06-14T03:41:45;8.13;;;7.17;;
1404;SDS011;697;51.114;6.542;2023-06-14T03:46:40;8.50;;;7.70;;
1404;SDS011;697;51.114;6.542;2023-06-14T03:49:07;8.13;;;7.33;;
1404;SDS011;697;51.114;6.542;2023-06-14T03:51:34;7.87;;;7.17;;
1404;SDS011;697;51.114;6.542;2023-06-14T03:54:01;7.47;;;6.87;;
1404;SDS011;697;51.114;6.542;2023-06-14T03:56:29;7.80;;;6.97;;
1404;SDS011;697;51.114;6.542;2023-06-14T03:58:55;9.73;;;7.37;;
1404;SDS011;697;51.114;6.542;2023-06-14T04:01:22;7.67;;;7.07;;
1404;SDS011;697;51.114;6.542;2023-06-14T04:03:54;7.20;;;6.60;;
1404;SDS011;697;51.114;6.542;2023-06-14T04:06:22;7.13;;;6.50;;
1404;SDS011;697;51.114;6.542;2023-06-14T04:08:50;8.13;;;7.33;;
1404;SDS011;697;51.114;6.542;2023-06-14T04:11:18;7.47;;;6.67;;
1404;SDS011;697;51.114;6.542;2023-06-14T04:13:46;8.57;;;7.67;;
1404;SDS011;697;51.114;6.542;2023-06-14T04:16:13;8.10;;;7.40;;
1404;SDS011;697;51.114;6.542;2023-06-14T04:18:40;10.70;;;8.47;;
1404;SDS011;697;51.114;6.542;2023-06-14T04:21:07;12.70;;;7.90;;
1404;SDS011;697;51.114;6.542;2023-06-14T04:23:33;9.33;;;7.30;;
1404;SDS011;697;51.114;6.542;2023-06-14T04:26:00;10.20;;;7.93;;
1404;SDS011;697;51.114;6.542;2023-06-14T04:28:27;8.87;;;8.07;;
1404;SDS011;697;51.114;6.542;2023-06-14T04:30:57;8.20;;;7.53;;
1404;SDS011;697;51.114;6.542;2023-06-14T04:33:26;8.50;;;7.70;;
1404;SDS011;697;51.114;6.542;2023-06-14T04:35:53;9.13;;;8.33;;
1404;SDS011;697;51.114;6.542;2023-06-14T04:38:21;8.33;;;7.63;;
1404;SDS011;697;51.114;6.542;2023-06-14T04:40:50;9.03;;;8.13;;
1404;SDS011;697;51.114;6.542;2023-06-14T04:43:18;10.67;;;7.70;;
1404;SDS011;697;51.114;6.542;2023-06-14T04:45:51;10.77;;;8.57;;
1404;SDS011;697;51.114;6.542;2023-06-14T04:48:20;10.10;;;8.37;;
1404;SDS011;697;51.114;6.542;2023-06-14T04:50:47;11.70;;;8.57;;
1404;SDS011;697;51.114;6.542;2023-06-14T04:53:17;8.83;;;8.03;;
1404;SDS011;697;51.114;6.542;2023-06-14T04:55:46;7.90;;;7.20;;
1404;SDS011;697;51.114;6.542;2023-06-14T04:58:13;10.20;;;7.77;;
1404;SDS011;697;51.114;6.542;2023-06-14T05:00:40;8.53;;;7.73;;
1404;SDS011;697;51.114;6.542;2023-06-14T05:03:08;8.43;;;7.63;;
1404;SDS011;697;51.114;6.542;2023-06-14T05:05:39;10.40;;;8.40;;
1404;SDS011;697;51.114;6.542;2023-06-14T05:08:06;12.43;;;8.73;;
1404;SDS011;697;51.114;6.542;2023-06-14T05:10:33;8.70;;;7.90;;
1404;SDS011;697;51.114;6.542;2023-06-14T05:13:01;9.00;;;8.10;;
1404;SDS011;697;51.114;6.542;2023-06-14T05:15:28;12.47;;;7.50;;
1404;SDS011;697;51.114;6.542;2023-06-14T05:17:55;11.77;;;7.93;;
1404;SDS011;697;51.114;6.542;2023-06-14T05:20:22;8.20;;;7.40;;
1404;SDS011;697;51.114;6.542;2023-06-14T05:22:51;8.13;;;7.33;;
1404;SDS011;697;51.114;6.542;2023-06-14T05:25:18;9.80;;;7.43;;
1404;SDS011;697;51.114;6.542;2023-06-14T05:27:45;8.20;;;7.40;;
1404;SDS011;697;51.114;6.542;2023-06-14T05:30:12;8.40;;;6.60;;
1404;SDS011;697;51.114;6.542;2023-06-14T05:32:40;7.47;;;6.63;;
1404;SDS011;697;51.114;6.542;2023-06-14T05:35:07;8.40;;;6.47;;
1404;SDS011;697;51.114;6.542;2023-06-14T05:37:34;7.80;;;6.50;;
1404;SDS011;697;51.114;6.542;2023-06-14T05:40:02;7.07;;;6.47;;
1404;SDS011;697;51.114;6.542;2023-06-14T05:42:31;6.83;;;6.23;;
1404;SDS011;697;51.114;6.542;2023-06-14T05:44:58;7.60;;;6.43;;
1404;SDS011;697;51.114;6.542;2023-06-14T05:47:24;8.53;;;7.00;;
1404;SDS011;697;51.114;6.542;2023-06-14T05:49:52;9.00;;;6.57;;
1404;SDS011;697;51.114;6.542;2023-06-14T05:52:19;8.93;;;6.63;;
1404;SDS011;697;51.114;6.542;2023-06-14T05:54:46;11.53;;;6.67;;
1404;SDS011;697;51.114;6.542;2023-06-14T05:57:14;7.63;;;6.87;;
1404;SDS011;697;51.114;6.542;2023-06-14T05:59:41;9.17;;;6.87;;
1404;SDS011;697;51.114;6.542;2023-06-14T06:02:08;9.57;;;7.40;;
1404;SDS011;697;51.114;6.542;2023-06-14T06:04:34;8.47;;;6.43;;
1404;SDS011;697;51.114;6.542;2023-06-14T06:07:01;6.97;;;6.37;;
1404;SDS011;697;51.114;6.542;2023-06-14T06:09:28;6.90;;;6.17;;
1404;SDS011;697;51.114;6.542;2023-06-14T06:11:55;7.77;;;6.50;;
1404;SDS011;697;51.114;6.542;2023-06-14T06:14:23;7.07;;;6.37;;
1404;SDS011;697;51.114;6.542;2023-06-14T06:16:50;6.63;;;5.23;;
1404;SDS011;697;51.114;6.542;2023-06-14T06:19:18;7.40;;;5.50;;
1404;SDS011;697;51.114;6.542;2023-06-14T06:21:44;6.87;;;5.70;;
1404;SDS011;697;51.114;6.542;2023-06-14T06:24:11;5.10;;;4.60;;
1404;SDS011;697;51.114;6.542;2023-06-14T06:26:38;6.90;;;5.40;;
1404;SDS011;697;51.114;6.542;2023-06-14T06:29:05;8.00;;;5.30;;
1404;SDS011;697;51.114;6.542;2023-06-14T06:31:33;5.33;;;4.87;;
1404;SDS011;697;51.114;6.542;2023-06-14T06:34:00;5.80;;;5.10;;
1404;SDS011;697;51.114;6.542;2023-06-14T06:36:27;5.20;;;4.80;;
1404;SDS011;697;51.114;6.542;2023-06-14T06:38:54;4.33;;;3.77;;
1404;SDS011;697;51.114;6.542;2023-06-14T06:41:21;6.03;;;4.00;;
1404;SDS011;697;51.114;6.542;2023-06-14T06:43:48;4.50;;;4.03;;
1404;SDS011;697;51.114;6.542;2023-06-14T06:46:15;4.50;;;4.10;;
1404;SDS011;697;51.114;6.542;2023-06-14T06:48:44;8.50;;;4.23;;
1404;SDS011;697;51.114;6.542;2023-06-14T06:51:11;5.03;;;4.40;;
1404;SDS011;697;51.114;6.542;2023-06-14T06:53:38;8.13;;;4.77;;
1404;SDS011;697;51.114;6.542;2023-06-14T06:56:05;5.90;;;4.73;;
1404;SDS011;697;51.114;6.542;2023-06-14T06:58:32;6.53;;;4.10;;
1404;SDS011;697;51.114;6.542;2023-06-14T07:00:59;4.57;;;4.17;;
1404;SDS011;697;51.114;6.542;2023-06-14T07:03:25;4.97;;;3.83;;
1404;SDS011;697;51.114;6.542;2023-06-14T07:05:54;4.13;;;3.83;;
1404;SDS011;697;51.114;6.542;2023-06-14T07:08:20;6.43;;;4.73;;
1404;SDS011;697;51.114;6.542;2023-06-14T07:10:47;6.17;;;4.87;;
1404;SDS011;697;51.114;6.542;2023-06-14T07:13:14;4.93;;;3.90;;
1404;SDS011;697;51.114;6.542;2023-06-14T07:15:41;7.70;;;3.77;;
1404;SDS011;697;51.114;6.542;2023-06-14T07:18:08;4.37;;;3.97;;
1404;SDS011;697;51.114;6.542;2023-06-14T07:20:34;5.43;;;3.97;;
1404;SDS011;697;51.114;6.542;2023-06-14T07:23:04;3.30;;;2.80;;
1404;SDS011;697;51.114;6.542;2023-06-14T07:25:31;4.73;;;3.40;;
1404;SDS011;697;51.114;6.542;2023-06-14T07:27:58;4.00;;;3.60;;
1404;SDS011;697;51.114;6.542;2023-06-14T07:30:25;6.17;;;4.23;;
1404;SDS011;697;51.114;6.542;2023-06-14T07:32:52;4.50;;;3.63;;
1404;SDS011;697;51.114;6.542;2023-06-14T07:35:19;7.23;;;3.70;;
1404;SDS011;697;51.114;6.542;2023-06-14T07:37:46;4.73;;;3.90;;
1404;SDS011;697;51.114;6.542;2023-06-14T07:40:14;7.03;;;4.10;;
1404;SDS011;697;51.114;6.542;2023-06-14T07:42:41;6.20;;;3.60;;
1404;SDS011;697;51.114;6.542;2023-06-14T07:45:08;6.03;;;3.47;;
1404;SDS011;697;51.114;6.542;2023-06-14T07:47:38;4.47;;;3.77;;
1404;SDS011;697;51.114;6.542;2023-06-14T07:50:06;4.00;;;3.30;;
1404;SDS011;697;51.114;6.542;2023-06-14T07:52:33;4.50;;;3.53;;
1404;SDS011;697;51.114;6.542;2023-06-14T07:54:59;7.80;;;3.60;;
1404;SDS011;697;51.114;6.542;2023-06-14T07:57:28;4.00;;;3.70;;
1404;SDS011;697;51.114;6.542;2023-06-14T07:59:54;5.40;;;3.50;;
1404;SDS011;697;51.114;6.542;2023-06-14T08:02:21;4.53;;;2.80;;
1404;SDS011;697;51.114;6.542;2023-06-14T08:04:48;3.10;;;2.87;;
1404;SDS011;697;51.114;6.542;2023-06-14T08:07:14;2.73;;;2.53;;
1404;SDS011;697;51.114;6.542;2023-06-14T08:09:41;5.20;;;2.47;;
1404;SDS011;697;51.114;6.542;2023-06-14T08:12:08;2.97;;;2.67;;
1404;SDS011;697;51.114;6.542;2023-06-14T08:14:37;2.87;;;2.67;;
1404;SDS011;697;51.114;6.542;2023-06-14T08:17:05;3.27;;;2.60;;
1404;SDS011;697;51.114;6.542;2023-06-14T08:19:32;3.90;;;2.17;;
1404;SDS011;697;51.114;6.542;2023-06-14T08:21:58;2.13;;;2.03;;
1404;SDS011;697;51.114;6.542;2023-06-14T08:24:26;2.13;;;1.97;;
1404;SDS011;697;51.114;6.542;2023-06-14T08:26:53;2.40;;;2.30;;
1404;SDS011;697;51.114;6.542;2023-06-14T08:29:21;2.63;;;2.20;;
1404;SDS011;697;51.114;6.542;2023-06-14T08:31:49;3.50;;;1.90;;
1404;SDS011;697;51.114;6.542;2023-06-14T08:34:16;2.70;;;1.90;;
1404;SDS011;697;51.114;6.542;2023-06-14T08:36:42;2.33;;;1.93;;
1404;SDS011;697;51.114;6.542;2023-06-14T08:39:09;2.00;;;1.80;;
1404;SDS011;697;51.114;6.542;2023-06-14T08:41:36;2.00;;;1.90;;
1404;SDS011;697;51.114;6.542;2023-06-14T08:44:03;5.03;;;2.00;;
1404;SDS011;697;51.114;6.542;2023-06-14T08:46:32;1.93;;;1.83;;
1404;SDS011;697;51.114;6.542;2023-06-14T08:49:01;2.90;;;2.23;;
1404;SDS011;697;51.114;6.542;2023-06-14T08:51:30;2.10;;;1.63;;
1404;SDS011;697;51.114;6.542;2023-06-14T08:53:59;4.43;;;2.20;;
1404;SDS011;697;51.114;6.542;2023-06-14T08:56:27;3.47;;;1.97;;
1404;SDS011;697;51.114;6.542;2023-06-14T08:58:55;2.10;;;1.90;;
1404;SDS011;697;51.114;6.542;2023-06-14T09:01:26;2.40;;;2.20;;
1404;SDS011;697;51.114;6.542;2023-06-14T09:03:53;2.77;;;1.90;;
1404;SDS011;697;51.114;6.542;2023-06-14T09:06:23;2.70;;;2.50;;
1404;SDS011;697;51.114;6.542;2023-06-14T09:08:50;5.70;;;1.90;;
1404;SDS011;697;51.114;6.542;2023-06-14T09:11:18;2.83;;;1.67;;
1404;SDS011;697;51.114;6.542;2023-06-14T09:13:45;2.40;;;2.17;;
1404;SDS011;697;51.114;6.542;2023-06-14T09:16:12;2.63;;;2.10;;
1404;SDS011;697;51.114;6.542;2023-06-14T09:18:40;4.77;;;2.30;;
1404;SDS011;697;51.114;6.542;2023-06-14T09:21:09;3.03;;;2.27;;
1404;SDS011;697;51.114;6.542;2023-06-14T09:23:39;2.03;;;1.93;;
1404;SDS011;697;51.114;6.542;2023-06-14T09:26:07;3.60;;;2.20;;
1404;SDS011;697;51.114;6.542;2023-06-14T09:28:34;3.63;;;2.00;;
1404;SDS011;697;51.114;6.542;2023-06-14T09:31:01;4.47;;;2.23;;
1404;SDS011;697;51.114;6.542;2023-06-14T09:33:28;4.20;;;2.07;;
1404;SDS011;697;51.114;6.542;2023-06-14T09:35:56;2.43;;;1.97;;
1404;SDS011;697;51.114;6.542;2023-06-14T09:38:24;2.10;;;1.83;;
1404;SDS011;697;51.114;6.542;2023-06-14T09:40:52;5.30;;;2.37;;
1404;SDS011;697;51.114;6.542;2023-06-14T09:43:22;1.63;;;1.53;;
1404;SDS011;697;51.114;6.542;2023-06-14T09:45:51;3.00;;;2.70;;
1404;SDS011;697;51.114;6.542;2023-06-14T09:48:18;2.30;;;1.90;;
1404;SDS011;697;51.114;6.542;2023-06-14T09:50:45;4.13;;;1.93;;
1404;SDS011;697;51.114;6.542;2023-06-14T09:53:13;14.93;;;2.63;;
1404;SDS011;697;51.114;6.542;2023-06-14T09:55:41;2.97;;;2.67;;
1404;SDS011;697;51.114;6.542;2023-06-14T09:58:10;3.87;;;2.10;;
1404;SDS011;697;51.114;6.542;2023-06-14T10:00:38;2.23;;;2.00;;
1404;SDS011;697;51.114;6.542;2023-06-14T10:03:06;4.80;;;2.13;;
1404;SDS011;697;51.114;6.542;2023-06-14T10:05:39;3.83;;;2.00;;
1404;SDS011;697;51.114;6.542;2023-06-14T10:08:10;2.03;;;1.70;;
1404;SDS011;697;51.114;6.542;2023-06-14T10:10:42;3.00;;;1.90;;
1404;SDS011;697;51.114;6.542;2023-06-14T10:13:11;6.83;;;2.10;;
1404;SDS011;697;51.114;6.542;2023-06-14T10:15:41;2.87;;;2.27;;
1404;SDS011;697;51.114;6.542;2023-06-14T10:18:16;2.53;;;1.93;;
1404;SDS011;697;51.114;6.542;2023-06-14T10:20:51;3.33;;;1.80;;
1404;SDS011;697;51.114;6.542;2023-06-14T10:23:24;2.90;;;2.00;;
1404;SDS011;697;51.114;6.542;2023-06-14T10:25:54;2.90;;;1.73;;
1404;SDS011;697;51.114;6.542;2023-06-14T10:28:26;6.68;;;1.80;;
1404;SDS011;697;51.114;6.542;2023-06-14T10:31:02;3.50;;;1.85;;
1404;SDS011;697;51.114;6.542;2023-06-14T10:33:30;2.35;;;1.70;;
1404;SDS011;697;51.114;6.542;2023-06-14T10:38:59;2.92;;;1.90;;
1404;SDS011;697;51.114;6.542;2023-06-14T10:41:27;3.15;;;2.05;;
1404;SDS011;697;51.114;6.542;2023-06-14T10:47:07;2.85;;;1.90;;
1404;SDS011;697;51.114;6.542;2023-06-14T10:49:37;3.22;;;1.85;;
1404;SDS011;697;51.114;6.542;2023-06-14T10:52:07;2.25;;;1.80;;
1404;SDS011;697;51.114;6.542;2023-06-14T10:54:55;2.25;;;1.65;;
1404;SDS011;697;51.114;6.542;2023-06-14T10:57:22;2.17;;;1.80;;
1404;SDS011;697;51.114;6.542;2023-06-14T10:59:49;1.63;;;1.42;;
1404;SDS011;697;51.114;6.542;2023-06-14T11:02:30;2.92;;;1.70;;
1404;SDS011;697;51.114;6.542;2023-06-14T11:05:24;1.77;;;1.63;;
1404;SDS011;697;51.114;6.542;2023-06-14T11:07:56;5.00;;;2.20;;
1404;SDS011;697;51.114;6.542;2023-06-14T11:10:36;2.30;;;1.83;;
1404;SDS011;697;51.114;6.542;2023-06-14T11:13:04;1.95;;;1.67;;
1404;SDS011;697;51.114;6.542;2023-06-14T11:15:31;1.65;;;1.48;;
1404;SDS011;697;51.114;6.542;2023-06-14T11:18:01;1.90;;;1.80;;
1404;SDS011;697;51.114;6.542;2023-06-14T11:20:30;2.33;;;1.70;;
1404;SDS011;697;51.114;6.542;2023-06-14T11:22:58;2.83;;;1.63;;
1404;SDS011;697;51.114;6.542;2023-06-14T11:25:25;2.08;;;1.67;;
1404;SDS011;697;51.114;6.542;2023-06-14T11:27:53;1.63;;;1.52;;
1404;SDS011;697;51.114;6.542;2023-06-14T11:30:20;2.08;;;1.50;;
1404;SDS011;697;51.114;6.542;2023-06-14T11:32:47;2.00;;;1.50;;
1404;SDS011;697;51.114;6.542;2023-06-14T11:35:16;2.22;;;1.65;;
1404;SDS011;697;51.114;6.542;2023-06-14T11:37:44;3.17;;;2.05;;
1404;SDS011;697;51.114;6.542;2023-06-14T11:40:12;1.60;;;1.50;;
1404;SDS011;697;51.114;6.542;2023-06-14T11:42:40;3.08;;;1.60;;
1404;SDS011;697;51.114;6.542;2023-06-14T11:45:07;3.35;;;1.45;;
1404;SDS011;697;51.114;6.542;2023-06-14T11:47:35;2.38;;;1.33;;
1404;SDS011;697;51.114;6.542;2023-06-14T11:50:03;4.00;;;1.75;;
1404;SDS011;697;51.114;6.542;2023-06-14T11:52:32;2.10;;;1.55;;
1404;SDS011;697;51.114;6.542;2023-06-14T11:54:59;1.65;;;1.55;;
1404;SDS011;697;51.114;6.542;2023-06-14T11:57:29;6.10;;;1.60;;
1404;SDS011;697;51.114;6.542;2023-06-14T11:59:56;2.65;;;1.48;;
1404;SDS011;697;51.114;6.542;2023-06-14T12:02:23;1.95;;;1.75;;
1404;SDS011;697;51.114;6.542;2023-06-14T12:04:52;3.88;;;1.70;;
1404;SDS011;697;51.114;6.542;2023-06-14T12:07:20;2.28;;;1.52;;
1404;SDS011;697;51.114;6.542;2023-06-14T12:10:05;5.40;;;1.73;;
1404;SDS011;697;51.114;6.542;2023-06-14T12:12:34;3.50;;;1.67;;
1404;SDS011;697;51.114;6.542;2023-06-14T12:15:03;2.13;;;1.60;;
1404;SDS011;697;51.114;6.542;2023-06-14T12:17:31;2.03;;;1.50;;
1404;SDS011;697;51.114;6.542;2023-06-14T12:20:04;2.10;;;1.90;;
1404;SDS011;697;51.114;6.542;2023-06-14T12:22:34;3.15;;;1.80;;
1404;SDS011;697;51.114;6.542;2023-06-14T12:25:01;3.58;;;1.60;;
1404;SDS011;697;51.114;6.542;2023-06-14T12:27:30;2.05;;;1.33;;
1404;SDS011;697;51.114;6.542;2023-06-14T12:29:59;2.70;;;1.60;;
1404;SDS011;697;51.114;6.542;2023-06-14T12:32:27;3.28;;;1.80;;
1404;SDS011;697;51.114;6.542;2023-06-14T12:34:54;4.85;;;2.03;;
1404;SDS011;697;51.114;6.542;2023-06-14T12:37:21;3.03;;;1.65;;
1404;SDS011;697;51.114;6.542;2023-06-14T12:39:48;1.70;;;1.30;;
1404;SDS011;697;51.114;6.542;2023-06-14T12:42:16;2.70;;;1.50;;
1404;SDS011;697;51.114;6.542;2023-06-14T12:44:44;1.70;;;1.58;;
1404;SDS011;697;51.114;6.542;2023-06-14T12:47:11;2.85;;;1.30;;
1404;SDS011;697;51.114;6.542;2023-06-14T12:49:38;1.30;;;1.20;;
1404;SDS011;697;51.114;6.542;2023-06-14T12:52:06;2.72;;;1.38;;
1404;SDS011;697;51.114;6.542;2023-06-14T12:54:34;1.48;;;1.38;;
1404;SDS011;697;51.114;6.542;2023-06-14T12:57:01;2.75;;;1.70;;
1404;SDS011;697;51.114;6.542;2023-06-14T12:59:28;2.08;;;1.50;;
1404;SDS011;697;51.114;6.542;2023-06-14T13:01:59;1.40;;;1.30;;
1404;SDS011;697;51.114;6.542;2023-06-14T13:04:36;2.20;;;1.20;;
1404;SDS011;697;51.114;6.542;2023-06-14T13:07:02;4.63;;;1.52;;
1404;SDS011;697;51.114;6.542;2023-06-14T13:09:29;4.07;;;1.50;;
1404;SDS011;697;51.114;6.542;2023-06-14T13:11:56;3.50;;;1.60;;
1404;SDS011;697;51.114;6.542;2023-06-14T13:14:23;1.10;;;1.00;;
1404;SDS011;697;51.114;6.542;2023-06-14T13:16:51;3.80;;;1.50;;
1404;SDS011;697;51.114;6.542;2023-06-14T13:19:19;2.83;;;1.50;;
1404;SDS011;697;51.114;6.542;2023-06-14T13:21:45;4.90;;;1.50;;
1404;SDS011;697;51.114;6.542;2023-06-14T13:24:12;1.33;;;1.10;;
1404;SDS011;697;51.114;6.542;2023-06-14T13:26:39;2.05;;;1.40;;
1404;SDS011;697;51.114;6.542;2023-06-14T13:29:06;1.85;;;1.42;;
1404;SDS011;697;51.114;6.542;2023-06-14T13:31:33;2.42;;;1.05;;
1404;SDS011;697;51.114;6.542;2023-06-14T13:33:59;2.83;;;1.20;;
1404;SDS011;697;51.114;6.542;2023-06-14T13:36:27;3.10;;;1.40;;
1404;SDS011;697;51.114;6.542;2023-06-14T13:38:55;1.50;;;1.40;;
1404;SDS011;697;51.114;6.542;2023-06-14T13:41:23;3.35;;;1.50;;
1404;SDS011;697;51.114;6.542;2023-06-14T13:43:56;2.17;;;1.38;;
1404;SDS011;697;51.114;6.542;2023-06-14T13:46:23;4.30;;;1.20;;
1404;SDS011;697;51.114;6.542;2023-06-14T13:48:50;1.58;;;1.48;;
1404;SDS011;697;51.114;6.542;2023-06-14T13:51:17;3.90;;;1.23;;
1404;SDS011;697;51.114;6.542;2023-06-14T13:53:47;2.25;;;1.00;;
1404;SDS011;697;51.114;6.542;2023-06-14T13:56:15;3.35;;;1.25;;
1404;SDS011;697;51.114;6.542;2023-06-14T13:58:43;2.33;;;1.45;;
1404;SDS011;697;51.114;6.542;2023-06-14T14:01:09;4.65;;;1.10;;
1404;SDS011;697;51.114;6.542;2023-06-14T14:03:37;5.22;;;1.15;;
1404;SDS011;697;51.114;6.542;2023-06-14T14:06:04;3.58;;;1.10;;
1404;SDS011;697;51.114;6.542;2023-06-14T14:08:32;2.25;;;1.30;;
1404;SDS011;697;51.114;6.542;2023-06-14T14:11:00;2.55;;;1.33;;
1404;SDS011;697;51.114;6.542;2023-06-14T14:13:27;4.13;;;1.25;;
1404;SDS011;697;51.114;6.542;2023-06-14T14:15:54;3.72;;;1.42;;
1404;SDS011;697;51.114;6.542;2023-06-14T14:18:21;3.10;;;1.17;;
1404;SDS011;697;51.114;6.542;2023-06-14T14:20:47;1.08;;;0.90;;
1404;SDS011;697;51.114;6.542;2023-06-14T14:23:14;1.73;;;1.10;;
1404;SDS011;697;51.114;6.542;2023-06-14T14:25:41;1.70;;;1.40;;
1404;SDS011;697;51.114;6.542;2023-06-14T14:28:09;2.03;;;1.52;;
1404;SDS011;697;51.114;6.542;2023-06-14T14:30:36;2.05;;;1.08;;
1404;SDS011;697;51.114;6.542;2023-06-14T14:33:04;3.33;;;1.40;;
1404;SDS011;697;51.114;6.542;2023-06-14T14:35:31;1.95;;;1.27;;
1404;SDS011;697;51.114;6.542;2023-06-14T14:37:58;2.13;;;0.82;;
1404;SDS011;697;51.114;6.542;2023-06-14T14:40:25;2.03;;;1.30;;
1404;SDS011;697;51.114;6.542;2023-06-14T14:42:52;3.67;;;1.38;;
1404;SDS011;697;51.114;6.542;2023-06-14T14:45:20;3.15;;;1.30;;
1404;SDS011;697;51.114;6.542;2023-06-14T14:47:47;2.35;;;1.52;;
1404;SDS011;697;51.114;6.542;2023-06-14T14:50:13;4.93;;;1.73;;
1404;SDS011;697;51.114;6.542;2023-06-14T14:52:41;2.83;;;1.45;;
1404;SDS011;697;51.114;6.542;2023-06-14T14:55:08;3.92;;;1.50;;
1404;SDS011;697;51.114;6.542;2023-06-14T14:57:35;2.20;;;1.67;;
1404;SDS011;697;51.114;6.542;2023-06-14T15:00:02;1.73;;;1.58;;
1404;SDS011;697;51.114;6.542;2023-06-14T15:02:32;2.45;;;1.50;;
1404;SDS011;697;51.114;6.542;2023-06-14T15:04:58;1.73;;;1.25;;
1404;SDS011;697;51.114;6.542;2023-06-14T15:07:26;2.00;;;1.33;;
1404;SDS011;697;51.114;6.542;2023-06-14T15:09:53;2.83;;;1.60;;
1404;SDS011;697;51.114;6.542;2023-06-14T15:12:20;6.28;;;1.90;;
1404;SDS011;697;51.114;6.542;2023-06-14T15:14:48;1.70;;;1.20;;
1404;SDS011;697;51.114;6.542;2023-06-14T15:17:16;2.83;;;1.50;;
1404;SDS011;697;51.114;6.542;2023-06-14T15:19:44;1.73;;;1.30;;
1404;SDS011;697;51.114;6.542;2023-06-14T15:22:11;2.22;;;1.58;;
1404;SDS011;697;51.114;6.542;2023-06-14T15:24:39;1.73;;;1.27;;
1404;SDS011;697;51.114;6.542;2023-06-14T15:27:06;2.95;;;1.50;;
1404;SDS011;697;51.114;6.542;2023-06-14T15:29:33;1.58;;;1.48;;
1404;SDS011;697;51.114;6.542;2023-06-14T15:32:00;1.70;;;1.60;;
1404;SDS011;697;51.114;6.542;2023-06-14T15:34:27;2.17;;;1.98;;
1404;SDS011;697;51.114;6.542;2023-06-14T15:36:55;5.97;;;1.80;;
1404;SDS011;697;51.114;6.542;2023-06-14T15:39:22;1.98;;;1.80;;
1404;SDS011;697;51.114;6.542;2023-06-14T15:41:49;1.77;;;1.67;;
1404;SDS011;697;51.114;6.542;2023-06-14T15:44:16;5.78;;;1.90;;